Norient Star — 9HRV9 — position and weather

sailwx.info

Track history (hours):
 
Tides and Currents Weather Stations Pressure Air Temp Water Temp Dewpoint Dewpoint Depression Visibility Wind Speed Wind Dir Waves Ship Positions

Norient Star

Last reported at 2014-Aug-21 21:34 UTC. Time now 2014-Aug-21 22:00 UTC.
Position N 53°40' E 009°31'.

Length 180 m; draft 10.1 m.

Type: Ship. MMSI: 249434000.

Date/timePositionNaut miles runAvg speedWind from/ knotsBaromVisibWave heightAir tempDewpointWater temp
2014-Aug-21 21:34N 53°40' E 009°31'1211.9
2014-Aug-21 20:33N 53°50' E 009°20'1111.2
2014-Aug-21 19:33N 53°51' E 009°02'1211.7
2014-Aug-21 18:33N 53°53' E 008°42'1312.6
2014-Aug-21 17:33N 53°59' E 008°23'1110.6
2014-Aug-21 16:29N 53°60' E 008°03'5 5.9
2014-Aug-21 15:33N 54°02' E 007°55'7 5.3
2014-Aug-21 14:18N 54°05' E 007°45'0 0.0
2014-Aug-21 13:33N 54°05' E 007°45'0 0.1
2014-Aug-21 12:33N 54°05' E 007°45'0 0.1
2014-Aug-21 11:33N 54°05' E 007°44'18 9.2
2014-Aug-21 09:33N 54°18' E 007°22'1211.8
2014-Aug-21 08:33N 54°29' E 007°16'1212.0
2014-Aug-21 07:33N 54°40' E 007°11'1312.3
2014-Aug-21 06:31N 54°53' E 007°04'1212.6
2014-Aug-21 05:33N 55°04' E 006°58'1312.7
2014-Aug-21 04:33N 55°17' E 006°52'1211.6
2014-Aug-21 03:33N 55°28' E 006°51'1512.0
2014-Aug-21 02:21N 55°42' E 006°59'166 9.9
2014-Aug-20 09:33N 57°49' E 010°15'1111.0
2014-Aug-20 08:33N 57°49' E 010°35'1010.0
2014-Aug-20 07:33N 57°44' E 010°52'10 9.6
2014-Aug-20 06:33N 57°38' E 011°05'1111.2
2014-Aug-20 05:33N 57°30' E 011°21'1111.0
2014-Aug-20 04:33N 57°21' E 011°31'1111.0
2014-Aug-20 03:33N 57°10' E 011°37'161 8.5
2014-Aug-19 08:33N 54°29' E 011°35'13 9.3
2014-Aug-19 07:11N 54°27' E 011°56'6 9.5
2014-Aug-19 06:33N 54°27' E 012°06'11 8.8
2014-Aug-19 05:18N 54°36' E 012°17'6 7.8
2014-Aug-19 04:32N 54°39' E 012°25'2010.3
2014-Aug-19 02:33N 54°49' E 012°56'1110.8
2014-Aug-19 01:33N 54°53' E 013°14'1110.8
2014-Aug-19 00:33N 54°58' E 013°31'2410.2
2014-Aug-18 22:14N 55°08' E 014°08'1810.5
2014-Aug-18 20:33N 55°21' E 014°28'1410.9
2014-Aug-18 19:18N 55°30' E 014°47'811.1
2014-Aug-18 18:33N 55°34' E 014°60'1110.5
2014-Aug-18 17:31N 55°39' E 015°17'34610.1
2014-Aug-17 07:25N 59°36' E 023°07'1112.4
2014-Aug-17 06:32N 59°39' E 023°28'1212.5
2014-Aug-17 05:34N 59°42' E 023°51'1512.4
2014-Aug-17 04:23N 59°46' E 024°19'1312.3
2014-Aug-17 03:21N 59°49' E 024°43'1112.5
2014-Aug-17 02:30N 59°50' E 025°04'1212.4
2014-Aug-17 01:32N 59°53' E 025°28'1412.4
2014-Aug-17 00:23N 59°56' E 025°55'1312.2
2014-Aug-16 23:18N 59°60' E 026°20'912.0
2014-Aug-16 22:33N 60°01' E 026°38'1312.2
2014-Aug-16 21:31N 59°60' E 027°03'15 0.3
2014-Aug-14 21:33N 59°58' E 026°32'10012.5
2014-Aug-14 13:32N 59°33' E 023°21'30012.4
2014-Aug-13 13:19N 56°01' E 016°40'912.6
2014-Aug-13 12:34N 55°56' E 016°26'2612.9
2014-Aug-13 10:33N 55°44' E 015°45'1312.8
2014-Aug-13 09:33N 55°38' E 015°25'1312.9
2014-Aug-13 08:33N 55°32' E 015°05'1312.8
2014-Aug-13 07:33N 55°26' E 014°45'1312.6
2014-Aug-13 06:33N 55°17' E 014°29'1313.1
2014-Aug-13 05:33N 55°06' E 014°15'1212.5
2014-Aug-13 04:33N 54°59' E 013°58'1313.1
2014-Aug-13 03:34N 54°55' E 013°36'1313.1
2014-Aug-13 02:34N 54°51' E 013°14'1313.2
2014-Aug-13 01:34N 54°47' E 012°52'1313.1
2014-Aug-13 00:34N 54°41' E 012°33'1313.0
2014-Aug-12 23:33N 54°32' E 012°17'1111.5
2014-Aug-12 22:34N 54°24' E 012°02'1413.2
2014-Aug-12 21:29N 54°27' E 011°37'72 7.0
2014-Aug-12 11:12N 54°14' E 009°36'4 6.2
2014-Aug-12 10:33N 54°11' E 009°31'7 6.5
2014-Aug-12 09:33N 54°08' E 009°20'6 5.9
2014-Aug-12 08:30N 54°02' E 009°18'3 3.2
2014-Aug-12 07:33N 53°59' E 009°17'6 6.2
2014-Aug-12 06:33N 53°55' E 009°10'2 2.2
2014-Aug-12 05:33N 53°53' E 009°08'1 0.6
2014-Aug-12 04:33N 53°53' E 009°09'9 8.5
2014-Aug-12 03:33N 53°49' E 009°22'1111.2
2014-Aug-12 02:33N 53°40' E 009°31'10 9.8
2014-Aug-12 01:33N 53°34' E 009°44'8 7.5
2014-Aug-12 00:33N 53°32' E 009°56'2 1.7
2014-Aug-11 23:33N 53°30' E 009°57'0 0.0
2014-Aug-11 22:33N 53°30' E 009°57'  
Track history (hours):
 
Tides and Currents Weather Stations Pressure Air Temp Water Temp Dewpoint Dewpoint Depression Visibility Wind Speed Wind Dir Waves Ship Positions

Norient Star

Last reported at 2014-Aug-21 21:34 UTC. Time now 2014-Aug-21 22:00 UTC.
Position N 53°40' E 009°31'.

Length 180 m; draft 10.1 m.

Type: Ship. MMSI: 249434000.

Date/timePositionNaut miles runAvg speedWind from/ knotsBaromVisibWave heightAir tempDewpointWater temp
2014-Aug-21 21:34N 53°40' E 009°31'1211.9
2014-Aug-21 20:33N 53°50' E 009°20'1111.2
2014-Aug-21 19:33N 53°51' E 009°02'1211.7
2014-Aug-21 18:33N 53°53' E 008°42'1312.6
2014-Aug-21 17:33N 53°59' E 008°23'1110.6
2014-Aug-21 16:29N 53°60' E 008°03'5 5.9
2014-Aug-21 15:33N 54°02' E 007°55'7 5.3
2014-Aug-21 14:18N 54°05' E 007°45'0 0.0
2014-Aug-21 13:33N 54°05' E 007°45'0 0.1
2014-Aug-21 12:33N 54°05' E 007°45'0 0.1
2014-Aug-21 11:33N 54°05' E 007°44'18 9.2
2014-Aug-21 09:33N 54°18' E 007°22'1211.8
2014-Aug-21 08:33N 54°29' E 007°16'1212.0
2014-Aug-21 07:33N 54°40' E 007°11'1312.3
2014-Aug-21 06:31N 54°53' E 007°04'1212.6
2014-Aug-21 05:33N 55°04' E 006°58'1312.7
2014-Aug-21 04:33N 55°17' E 006°52'1211.6
2014-Aug-21 03:33N 55°28' E 006°51'1512.0
2014-Aug-21 02:21N 55°42' E 006°59'166 9.9
2014-Aug-20 09:33N 57°49' E 010°15'1111.0
2014-Aug-20 08:33N 57°49' E 010°35'1010.0
2014-Aug-20 07:33N 57°44' E 010°52'10 9.6
2014-Aug-20 06:33N 57°38' E 011°05'1111.2
2014-Aug-20 05:33N 57°30' E 011°21'1111.0
2014-Aug-20 04:33N 57°21' E 011°31'1111.0
2014-Aug-20 03:33N 57°10' E 011°37'161 8.5
2014-Aug-19 08:33N 54°29' E 011°35'13 9.3
2014-Aug-19 07:11N 54°27' E 011°56'6 9.5
2014-Aug-19 06:33N 54°27' E 012°06'11 8.8
2014-Aug-19 05:18N 54°36' E 012°17'6 7.8
2014-Aug-19 04:32N 54°39' E 012°25'2010.3
2014-Aug-19 02:33N 54°49' E 012°56'1110.8
2014-Aug-19 01:33N 54°53' E 013°14'1110.8
2014-Aug-19 00:33N 54°58' E 013°31'2410.2
2014-Aug-18 22:14N 55°08' E 014°08'1810.5
2014-Aug-18 20:33N 55°21' E 014°28'1410.9
2014-Aug-18 19:18N 55°30' E 014°47'811.1
2014-Aug-18 18:33N 55°34' E 014°60'1110.5
2014-Aug-18 17:31N 55°39' E 015°17'34610.1
2014-Aug-17 07:25N 59°36' E 023°07'1112.4
2014-Aug-17 06:32N 59°39' E 023°28'1212.5
2014-Aug-17 05:34N 59°42' E 023°51'1512.4
2014-Aug-17 04:23N 59°46' E 024°19'1312.3
2014-Aug-17 03:21N 59°49' E 024°43'1112.5
2014-Aug-17 02:30N 59°50' E 025°04'1212.4
2014-Aug-17 01:32N 59°53' E 025°28'1412.4
2014-Aug-17 00:23N 59°56' E 025°55'1312.2
2014-Aug-16 23:18N 59°60' E 026°20'912.0
2014-Aug-16 22:33N 60°01' E 026°38'1312.2
2014-Aug-16 21:31N 59°60' E 027°03'15 0.3
2014-Aug-14 21:33N 59°58' E 026°32'10012.5
2014-Aug-14 13:32N 59°33' E 023°21'30012.4
2014-Aug-13 13:19N 56°01' E 016°40'912.6
2014-Aug-13 12:34N 55°56' E 016°26'2612.9
2014-Aug-13 10:33N 55°44' E 015°45'1312.8
2014-Aug-13 09:33N 55°38' E 015°25'1312.9
2014-Aug-13 08:33N 55°32' E 015°05'1312.8
2014-Aug-13 07:33N 55°26' E 014°45'1312.6
2014-Aug-13 06:33N 55°17' E 014°29'1313.1
2014-Aug-13 05:33N 55°06' E 014°15'1212.5
2014-Aug-13 04:33N 54°59' E 013°58'1313.1
2014-Aug-13 03:34N 54°55' E 013°36'1313.1
2014-Aug-13 02:34N 54°51' E 013°14'1313.2
2014-Aug-13 01:34N 54°47' E 012°52'1313.1
2014-Aug-13 00:34N 54°41' E 012°33'1313.0
2014-Aug-12 23:33N 54°32' E 012°17'1111.5
2014-Aug-12 22:34N 54°24' E 012°02'1413.2
2014-Aug-12 21:29N 54°27' E 011°37'72 7.0
2014-Aug-12 11:12N 54°14' E 009°36'4 6.2
2014-Aug-12 10:33N 54°11' E 009°31'7 6.5
2014-Aug-12 09:33N 54°08' E 009°20'6 5.9
2014-Aug-12 08:30N 54°02' E 009°18'3 3.2
2014-Aug-12 07:33N 53°59' E 009°17'6 6.2
2014-Aug-12 06:33N 53°55' E 009°10'2 2.2
2014-Aug-12 05:33N 53°53' E 009°08'1 0.6
2014-Aug-12 04:33N 53°53' E 009°09'9 8.5
2014-Aug-12 03:33N 53°49' E 009°22'1111.2
2014-Aug-12 02:33N 53°40' E 009°31'10 9.8
2014-Aug-12 01:33N 53°34' E 009°44'8 7.5
2014-Aug-12 00:33N 53°32' E 009°56'2 1.7
2014-Aug-11 23:33N 53°30' E 009°57'0 0.0
2014-Aug-11 22:33N 53°30' E 009°57'  

Dump ship's entire track history